createdAt,value
2022-11-08T00:03:51.760Z,24.25
2022-11-08T00:09:14.630Z,24.26
2022-11-08T00:14:20.399Z,23.99
2022-11-08T00:19:27.546Z,23.34
2022-11-08T00:24:30.908Z,23.82
2022-11-08T00:29:34.923Z,24.40
2022-11-08T00:34:39.856Z,23.19
2022-11-08T00:39:43.336Z,24.24
2022-11-08T00:44:46.855Z,23.14
2022-11-08T00:49:51.555Z,23.15
2022-11-08T00:54:54.935Z,22.98
2022-11-08T01:00:01.419Z,22.26
2022-11-08T01:05:06.752Z,23.80
2022-11-08T01:10:10.775Z,23.47
2022-11-08T01:15:14.330Z,23.42
2022-11-08T01:20:21.404Z,23.14
2022-11-08T01:25:25.343Z,23.25
2022-11-08T01:30:28.734Z,23.63
2022-11-08T01:35:34.810Z,23.21
2022-11-08T01:40:43.693Z,23.43
2022-11-08T01:46:17.234Z,22.93
2022-11-08T01:51:26.189Z,23.53
2022-11-08T01:56:29.639Z,23.65
2022-11-08T02:01:35.489Z,23.48
2022-11-08T02:06:44.271Z,22.71
2022-11-08T02:11:49.593Z,23.54
2022-11-08T02:16:56.084Z,23.14
2022-11-08T02:22:06.271Z,23.49
2022-11-08T02:27:11.904Z,23.68
2022-11-08T02:32:15.461Z,23.74
2022-11-08T02:37:21.027Z,23.35
2022-11-08T02:42:28.192Z,23.08
2022-11-08T02:47:31.848Z,23.64
2022-11-08T02:52:37.792Z,23.72
2022-11-08T02:57:44.760Z,23.48
2022-11-08T03:02:53.173Z,23.72
2022-11-08T03:07:57.077Z,23.65
2022-11-08T03:13:03.296Z,23.95
2022-11-08T03:18:07.404Z,23.97
2022-11-08T03:23:12.988Z,24.67
2022-11-08T03:28:22.552Z,25.06
2022-11-08T03:33:28.702Z,25.51
2022-11-08T03:38:34.396Z,24.66
2022-11-08T03:43:39.300Z,23.93
2022-11-08T03:48:42.724Z,25.67
2022-11-08T03:53:50.708Z,26.20
2022-11-08T03:58:55.472Z,25.92
2022-11-08T04:04:01.955Z,25.62
2022-11-08T04:09:07.629Z,26.03
2022-11-08T04:14:30.387Z,25.56
2022-11-08T04:19:54.071Z,25.39
2022-11-08T04:24:59.622Z,26.38
2022-11-08T04:30:04.758Z,26.46
2022-11-08T04:35:08.461Z,27.42
2022-11-08T04:40:14.663Z,26.17
2022-11-08T04:45:19.535Z,26.63
2022-11-08T04:50:23.010Z,26.84
2022-11-08T04:55:28.491Z,27.27
2022-11-08T05:00:33.259Z,26.91
2022-11-08T05:05:36.619Z,27.37
2022-11-08T05:10:39.944Z,28.47
2022-11-08T05:15:46.808Z,28.12
2022-11-08T05:21:11.990Z,30.66
2022-11-08T05:26:15.918Z,28.95
2022-11-08T05:31:21.010Z,28.39
2022-11-08T05:36:24.349Z,29.41
2022-11-08T05:41:28.159Z,29.62
2022-11-08T05:46:32.989Z,32.24
2022-11-08T05:51:37.005Z,31.41
2022-11-08T05:56:40.372Z,30.78
2022-11-08T06:01:47.309Z,29.62
2022-11-08T06:06:53.116Z,29.94
2022-11-08T06:11:59.702Z,29.56
2022-11-08T06:17:04.531Z,31.26
2022-11-08T06:22:07.952Z,31.07
2022-11-08T06:27:11.276Z,30.75
2022-11-08T06:32:15.992Z,29.76
2022-11-08T06:37:21.735Z,29.86
2022-11-08T06:42:25.158Z,29.53
2022-11-08T06:47:32.907Z,33.54
2022-11-08T06:52:40.852Z,31.89
2022-11-08T06:57:46.336Z,29.91
2022-11-08T07:02:54.610Z,28.88
2022-11-08T07:08:00.700Z,28.96
2022-11-08T07:13:07.822Z,29.67
2022-11-08T07:18:14.229Z,28.62
2022-11-08T07:23:18.215Z,28.47
2022-11-08T07:28:26.385Z,27.73
2022-11-08T07:33:34.132Z,30.21
2022-11-08T07:38:39.681Z,29.39
2022-11-08T07:43:43.087Z,28.13
2022-11-08T07:48:55.549Z,28.57
2022-11-08T07:54:03.191Z,29.75
2022-11-08T07:59:06.840Z,27.53
2022-11-08T08:04:12.315Z,28.11
2022-11-08T08:09:17.799Z,32.53
2022-11-08T08:14:21.225Z,29.41
2022-11-08T08:19:25.958Z,24.77
2022-11-08T08:24:29.448Z,25.53
2022-11-08T08:29:32.863Z,24.51
2022-11-08T08:34:42.546Z,23.46
2022-11-08T08:39:48.236Z,22.29
2022-11-08T08:44:51.676Z,23.85
2022-11-08T08:49:56.798Z,24.50
2022-11-08T08:55:05.147Z,25.43
2022-11-08T09:05:34.870Z,25.89
2022-11-08T09:10:41.167Z,23.15
2022-11-08T09:15:44.560Z,21.91
2022-11-08T09:20:49.312Z,21.61
2022-11-08T09:25:57.253Z,22.21
2022-11-08T09:31:03.935Z,21.16
2022-11-08T09:36:13.931Z,17.90
2022-11-08T09:41:40.650Z,16.93
2022-11-08T09:46:49.235Z,17.82
2022-11-08T09:51:54.253Z,17.75
2022-11-08T09:56:58.178Z,19.62
2022-11-08T10:02:01.567Z,19.34
2022-11-08T10:07:15.403Z,18.87
2022-11-08T10:12:22.474Z,17.37
2022-11-08T10:17:45.906Z,17.76
2022-11-08T10:23:00.829Z,17.76
2022-11-08T10:28:07.939Z,17.69
2022-11-08T10:33:18.487Z,17.01
2022-11-08T10:38:26.153Z,18.08
2022-11-08T10:43:36.300Z,16.43
2022-11-08T10:48:44.601Z,15.38
2022-11-08T10:53:49.424Z,14.96
2022-11-08T10:58:52.803Z,15.06
2022-11-08T11:03:56.235Z,14.08
2022-11-08T11:09:05.024Z,14.31
2022-11-08T11:14:22.524Z,14.68
2022-11-08T11:19:28.273Z,13.86
2022-11-08T11:24:35.622Z,14.67
2022-11-08T11:29:39.795Z,14.06
2022-11-08T11:34:52.097Z,25.44
2022-11-08T11:40:03.561Z,17.51
2022-11-08T11:45:13.612Z,15.63
2022-11-08T11:50:22.534Z,15.26
2022-11-08T11:55:31.589Z,16.90
2022-11-08T12:00:38.446Z,18.99
2022-11-08T12:05:59.928Z,19.77
2022-11-08T12:11:17.759Z,14.94
2022-11-08T12:16:27.030Z,16.11
2022-11-08T12:21:41.229Z,14.95
2022-11-08T12:26:55.467Z,13.90
2022-11-08T12:32:14.247Z,13.76
2022-11-08T12:37:29.352Z,15.69
2022-11-08T12:42:50.504Z,16.42
2022-11-08T12:47:57.513Z,16.13
2022-11-08T12:53:15.273Z,14.95
2022-11-08T12:58:31.673Z,14.86
2022-11-08T13:04:03.190Z,11.70
2022-11-08T13:09:20.510Z,10.57
2022-11-08T13:14:28.115Z,11.17
2022-11-08T13:19:54.839Z,10.79
2022-11-08T13:25:01.896Z,9.65
2022-11-08T13:30:24.024Z,10.65
2022-11-08T13:35:34.995Z,10.17
2022-11-08T13:40:45.618Z,12.48
2022-11-08T13:45:49.784Z,11.74
2022-11-08T13:50:55.685Z,12.53
2022-11-08T13:56:18.675Z,17.31
2022-11-08T14:01:44.639Z,77.75
2022-11-08T14:06:59.249Z,16.55
2022-11-08T14:12:09.524Z,14.15
2022-11-08T14:17:30.099Z,14.59
2022-11-08T14:22:35.774Z,17.01
2022-11-08T14:27:42.154Z,18.87
2022-11-08T14:32:46.323Z,18.29
2022-11-08T14:37:54.509Z,17.93
2022-11-08T14:42:58.500Z,31.94
2022-11-08T14:48:04.982Z,17.95
2022-11-08T14:53:21.811Z,17.50
2022-11-08T14:58:29.871Z,17.93
2022-11-08T15:03:34.211Z,18.87
2022-11-08T15:08:49.699Z,18.31
2022-11-08T15:13:56.993Z,19.63
2022-11-08T15:19:18.948Z,21.41
2022-11-08T15:24:34.239Z,22.33
2022-11-08T15:29:50.396Z,21.98
2022-11-08T15:34:56.002Z,27.30
2022-11-08T15:40:03.769Z,20.70
2022-11-08T15:45:21.958Z,21.98
2022-11-08T15:50:30.035Z,22.72
2022-11-08T15:55:39.708Z,24.46
2022-11-08T16:00:46.307Z,22.75
2022-11-08T16:05:49.868Z,24.65
2022-11-08T16:10:58.679Z,31.30
2022-11-08T16:16:04.570Z,28.66
2022-11-08T16:21:08.011Z,25.61
2022-11-08T16:26:17.172Z,26.22
2022-11-08T16:31:20.569Z,25.23
2022-11-08T16:36:29.218Z,26.06
2022-11-08T16:41:37.627Z,23.95
2022-11-08T16:46:46.427Z,20.52
2022-11-08T16:51:52.076Z,22.35
2022-11-08T16:57:20.649Z,21.86
2022-11-08T17:02:22.702Z,46.43
2022-11-08T17:07:29.441Z,24.58
2022-11-08T17:12:34.276Z,24.30
2022-11-08T17:17:37.655Z,25.88
2022-11-08T17:22:44.640Z,33.18
2022-11-08T17:27:52.560Z,27.36
2022-11-08T17:32:55.971Z,25.91
2022-11-08T17:37:59.418Z,23.88
2022-11-08T17:43:04.212Z,25.95
2022-11-08T17:48:07.724Z,27.29
2022-11-08T17:53:13.306Z,38.66
2022-11-08T17:58:20.199Z,30.71
2022-11-08T18:03:24.626Z,29.37
2022-11-08T18:08:31.711Z,28.97
2022-11-08T18:13:36.580Z,30.98
2022-11-08T18:18:43.868Z,100.97
2022-11-08T18:23:48.386Z,34.33
2022-11-08T18:28:53.166Z,35.08
2022-11-08T18:34:00.269Z,42.67
2022-11-08T18:39:04.241Z,43.85
2022-11-08T18:44:09.046Z,38.15
2022-11-08T18:49:15.349Z,37.39
2022-11-08T18:54:18.940Z,36.78
2022-11-08T18:59:26.731Z,38.51
2022-11-08T19:04:32.331Z,38.70
2022-11-08T19:09:35.859Z,40.88
2022-11-08T19:14:43.151Z,41.60
2022-11-08T19:19:46.568Z,42.63
2022-11-08T19:24:50.109Z,40.92
2022-11-08T19:29:54.954Z,41.69
2022-11-08T19:35:00.535Z,44.38
2022-11-08T19:40:04.224Z,43.86
2022-11-08T19:45:10.547Z,45.82
2022-11-08T19:50:15.011Z,46.22
2022-11-08T19:55:19.346Z,46.31
2022-11-08T20:00:25.012Z,47.41
2022-11-08T20:05:29.558Z,48.00
2022-11-08T20:10:33.790Z,48.77
2022-11-08T20:15:39.448Z,55.72
2022-11-08T20:20:44.087Z,50.42
2022-11-08T20:25:47.562Z,49.06
2022-11-08T20:31:02.028Z,50.71
2022-11-08T20:36:09.570Z,51.00
2022-11-08T20:41:14.234Z,53.76
2022-11-08T20:46:20.406Z,52.89
2022-11-08T20:51:23.841Z,50.97
2022-11-08T20:56:30.014Z,53.01
2022-11-08T21:01:36.183Z,51.96
2022-11-08T21:06:41.893Z,53.33
2022-11-08T21:11:45.401Z,53.88
2022-11-08T21:22:20.812Z,53.25
2022-11-08T21:27:30.061Z,52.60
2022-11-08T21:32:34.937Z,53.25
2022-11-08T21:37:38.363Z,52.34
2022-11-08T21:42:47.526Z,51.99
2022-11-08T21:47:54.186Z,51.50
2022-11-08T21:52:59.937Z,50.88
2022-11-08T21:58:05.688Z,51.61
2022-11-08T22:03:13.124Z,50.75
2022-11-08T22:08:20.396Z,50.70
2022-11-08T22:13:23.983Z,56.09
2022-11-08T22:18:50.849Z,46.49
2022-11-08T22:23:54.573Z,46.63
2022-11-08T22:28:57.955Z,48.14
2022-11-08T22:34:05.585Z,47.35
2022-11-08T22:39:12.626Z,46.94
2022-11-08T22:44:19.261Z,46.91
2022-11-08T22:49:24.000Z,47.06
2022-11-08T22:54:29.668Z,47.45
2022-11-08T22:59:33.044Z,45.29
2022-11-08T23:04:37.850Z,44.09
2022-11-08T23:09:43.436Z,43.21
2022-11-08T23:15:09.087Z,43.78
2022-11-08T23:20:31.348Z,42.77
2022-11-08T23:25:34.743Z,42.88
2022-11-08T23:30:55.401Z,43.23
2022-11-08T23:36:14.047Z,41.97
2022-11-08T23:41:34.811Z,41.98
2022-11-08T23:46:38.068Z,41.93
2022-11-08T23:51:45.082Z,42.10
2022-11-08T23:56:52.436Z,41.39
